createdAt,value
2023-04-10T00:02:16.559Z,18.48
2023-04-10T00:04:59.429Z,17.05
2023-04-10T00:07:42.339Z,19.45
2023-04-10T00:10:26.412Z,18.98
2023-04-10T00:13:10.478Z,17.65
2023-04-10T00:15:53.102Z,18.85
2023-04-10T00:18:35.828Z,17.45
2023-04-10T00:21:18.716Z,19.10
2023-04-10T00:24:01.373Z,20.30
2023-04-10T00:26:44.289Z,23.10
2023-04-10T00:29:28.285Z,19.20
2023-04-10T00:32:10.950Z,20.02
2023-04-10T00:34:53.637Z,19.13
2023-04-10T00:37:36.538Z,19.48
2023-04-10T00:40:19.196Z,18.08
2023-04-10T00:43:02.111Z,18.42
2023-04-10T00:45:46.165Z,20.15
2023-04-10T00:48:28.912Z,19.20
2023-04-10T00:51:12.550Z,18.45
2023-04-10T00:53:55.722Z,21.00
2023-04-10T00:56:38.741Z,20.17
2023-04-10T00:59:21.399Z,19.20
2023-04-10T01:02:05.775Z,19.95
2023-04-10T01:04:48.859Z,19.02
2023-04-10T01:07:36.425Z,20.67
2023-04-10T01:10:21.519Z,18.67
2023-04-10T01:13:07.756Z,21.75
2023-04-10T01:15:53.284Z,20.05
2023-04-10T01:18:40.829Z,19.00
2023-04-10T01:21:23.614Z,20.00
2023-04-10T01:24:16.167Z,18.92
2023-04-10T01:27:10.855Z,18.83
2023-04-10T01:29:57.613Z,19.52
2023-04-10T01:32:42.358Z,18.70
2023-04-10T01:35:25.407Z,20.73
2023-04-10T01:38:08.832Z,19.52
2023-04-10T01:40:52.480Z,18.05
2023-04-10T01:43:43.176Z,18.85
2023-04-10T01:46:28.232Z,16.80
2023-04-10T01:49:11.328Z,19.10
2023-04-10T01:51:58.202Z,20.30
2023-04-10T01:54:45.490Z,17.98
2023-04-10T01:57:31.979Z,20.50
2023-04-10T02:00:15.849Z,18.17
2023-04-10T02:03:00.027Z,20.05
2023-04-10T02:05:49.947Z,16.10
2023-04-10T02:08:35.466Z,21.95
2023-04-10T02:11:25.303Z,19.48
2023-04-10T02:14:11.770Z,18.08
2023-04-10T02:16:57.235Z,17.83
2023-04-10T02:19:41.157Z,18.92
2023-04-10T02:22:25.544Z,19.40
2023-04-10T02:25:08.705Z,19.95
2023-04-10T02:27:51.557Z,19.60
2023-04-10T02:30:34.491Z,18.77
2023-04-10T02:33:17.149Z,17.98
2023-04-10T02:36:02.498Z,18.02
2023-04-10T02:38:45.200Z,20.75
2023-04-10T02:41:29.059Z,19.08
2023-04-10T02:44:12.022Z,18.25
2023-04-10T02:46:54.748Z,19.02
2023-04-10T02:49:37.721Z,18.38
2023-04-10T02:52:28.649Z,19.40
2023-04-10T02:55:11.736Z,20.67
2023-04-10T02:57:55.738Z,17.05
2023-04-10T03:00:38.408Z,20.52
2023-04-10T03:03:31.905Z,19.15
2023-04-10T03:06:14.599Z,22.23
2023-04-10T03:09:01.423Z,20.52
2023-04-10T03:11:44.092Z,19.75
2023-04-10T03:14:27.431Z,19.45
2023-04-10T03:17:10.494Z,19.15
2023-04-10T03:19:53.141Z,21.92
2023-04-10T03:22:37.001Z,18.52
2023-04-10T03:25:21.773Z,20.60
2023-04-10T03:28:04.653Z,20.38
2023-04-10T03:30:47.512Z,19.73
2023-04-10T03:33:30.347Z,20.67
2023-04-10T03:36:13.027Z,21.17
2023-04-10T03:38:55.765Z,18.48
2023-04-10T03:41:39.779Z,19.20
2023-04-10T03:44:23.067Z,19.52
2023-04-10T03:47:06.661Z,20.77
2023-04-10T03:49:49.617Z,19.98
2023-04-10T03:52:32.290Z,19.33
2023-04-10T03:55:18.947Z,20.58
2023-04-10T03:58:03.361Z,18.70
2023-04-10T04:00:46.801Z,21.50
2023-04-10T04:03:44.910Z,21.40
2023-04-10T04:06:46.208Z,20.33
2023-04-10T04:09:42.227Z,20.17
2023-04-10T04:12:45.136Z,20.17
2023-04-10T04:15:51.998Z,21.42
2023-04-10T04:18:54.475Z,17.77
2023-04-10T04:21:45.469Z,20.50
2023-04-10T04:24:35.862Z,18.17
2023-04-10T04:27:31.480Z,20.13
2023-04-10T04:30:36.982Z,20.27
2023-04-10T04:33:41.040Z,19.35
2023-04-10T04:36:42.212Z,18.15
2023-04-10T04:39:30.665Z,19.65
2023-04-10T04:42:39.628Z,23.60
2023-04-10T04:45:34.128Z,19.33
2023-04-10T04:48:16.795Z,19.05
2023-04-10T04:51:28.891Z,20.95
2023-04-10T04:54:37.796Z,19.52
2023-04-10T04:57:43.572Z,19.45
2023-04-10T05:00:46.302Z,19.38
2023-04-10T05:04:03.922Z,19.10
2023-04-10T05:07:14.128Z,20.17
2023-04-10T05:10:02.367Z,19.45
2023-04-10T05:13:01.817Z,21.38
2023-04-10T05:16:01.878Z,18.98
2023-04-10T05:18:55.968Z,22.60
2023-04-10T05:22:09.764Z,19.50
2023-04-10T05:25:23.143Z,23.15
2023-04-10T05:28:24.083Z,19.98
2023-04-10T05:31:16.399Z,21.35
2023-04-10T05:34:10.654Z,20.15
2023-04-10T05:37:19.599Z,20.40
2023-04-10T05:40:12.281Z,20.27
2023-04-10T05:43:12.860Z,18.15
2023-04-10T05:46:24.818Z,20.83
2023-04-10T05:49:21.224Z,18.25
2023-04-10T05:52:33.036Z,20.23
2023-04-10T05:55:27.761Z,19.52
2023-04-10T05:58:24.452Z,22.48
2023-04-10T06:01:26.122Z,21.83
2023-04-10T06:04:14.344Z,17.42
2023-04-10T06:06:58.169Z,16.88
2023-04-10T06:09:40.865Z,18.77
2023-04-10T06:12:25.380Z,19.23
2023-04-10T06:15:10.248Z,20.33
2023-04-10T06:17:53.980Z,20.60
2023-04-10T06:20:36.627Z,20.95
2023-04-10T06:23:19.296Z,21.00
2023-04-10T06:26:03.392Z,19.02
2023-04-10T06:28:46.370Z,20.83
2023-04-10T06:31:35.054Z,20.52
2023-04-10T06:34:18.234Z,19.35
2023-04-10T06:37:27.895Z,20.00
2023-04-10T06:40:11.337Z,19.40
2023-04-10T06:42:53.940Z,19.45
2023-04-10T06:45:43.346Z,23.48
2023-04-10T06:48:27.530Z,20.23
2023-04-10T06:51:10.405Z,18.92
2023-04-10T06:53:53.000Z,19.75
2023-04-10T06:56:35.606Z,19.67
2023-04-10T06:59:18.191Z,22.25
2023-04-10T07:02:01.131Z,18.65
2023-04-10T07:04:45.613Z,21.38
2023-04-10T07:07:29.244Z,19.85
2023-04-10T07:10:12.997Z,20.95
2023-04-10T07:12:57.238Z,20.73
2023-04-10T07:15:39.900Z,21.40
2023-04-10T07:18:22.579Z,20.88
2023-04-10T07:21:11.295Z,20.00
2023-04-10T07:23:55.143Z,19.50
2023-04-10T07:26:37.746Z,18.80
2023-04-10T07:29:21.334Z,19.25
2023-04-10T07:32:04.253Z,18.98
2023-04-10T07:34:47.384Z,20.27
2023-04-10T07:37:31.347Z,17.95
2023-04-10T07:40:14.021Z,18.52
2023-04-10T07:42:56.610Z,17.55
2023-04-10T07:45:39.548Z,18.30
2023-04-10T07:48:22.151Z,16.45
2023-04-10T07:51:05.526Z,19.45
2023-04-10T07:53:49.512Z,18.85
2023-04-10T07:56:32.523Z,20.60
2023-04-10T07:59:15.386Z,18.95
2023-04-10T08:01:58.090Z,18.08
2023-04-10T08:04:42.824Z,18.35
2023-04-10T08:07:25.680Z,17.52
2023-04-10T08:10:10.398Z,16.45
2023-04-10T08:12:53.029Z,18.15
2023-04-10T08:15:35.674Z,15.90
2023-04-10T08:18:18.331Z,15.85
2023-04-10T08:21:00.955Z,20.77
2023-04-10T08:23:43.634Z,18.65
2023-04-10T08:26:28.373Z,16.50
2023-04-10T08:29:10.998Z,16.95
2023-04-10T08:31:54.462Z,16.25
2023-04-10T08:34:37.095Z,17.52
2023-04-10T08:37:21.508Z,17.05
2023-04-10T08:40:04.335Z,20.95
2023-04-10T08:42:48.303Z,16.95
2023-04-10T08:45:31.045Z,16.63
2023-04-10T08:48:14.868Z,15.70
2023-04-10T08:51:00.738Z,18.50
2023-04-10T08:53:45.311Z,18.33
2023-04-10T08:56:28.038Z,15.13
2023-04-10T08:59:12.010Z,15.18
2023-04-10T09:01:54.849Z,16.73
2023-04-10T09:04:37.622Z,16.73
2023-04-10T09:07:20.292Z,16.23
2023-04-10T09:10:03.282Z,13.93
2023-04-10T09:12:47.082Z,15.80
2023-04-10T09:15:31.012Z,15.30
2023-04-10T09:18:13.648Z,15.27
2023-04-10T09:21:07.095Z,17.52
2023-04-10T09:23:50.228Z,15.13
2023-04-10T09:26:33.648Z,15.55
2023-04-10T09:29:16.950Z,15.05
2023-04-10T09:32:00.907Z,13.27
2023-04-10T09:34:53.863Z,14.60
2023-04-10T09:37:36.956Z,15.02
2023-04-10T09:40:24.399Z,16.00
2023-04-10T09:43:17.953Z,14.95
2023-04-10T09:46:00.649Z,12.82
2023-04-10T09:48:55.433Z,13.73
2023-04-10T09:51:39.308Z,13.10
2023-04-10T09:54:36.138Z,13.27
2023-04-10T09:57:20.086Z,14.70
2023-04-10T10:00:04.333Z,13.55
2023-04-10T10:02:49.647Z,12.45
2023-04-10T10:05:33.710Z,13.02
2023-04-10T10:08:16.663Z,13.13
2023-04-10T10:11:00.911Z,15.52
2023-04-10T10:13:48.200Z,16.48
2023-04-10T10:16:34.097Z,12.00
2023-04-10T10:19:20.505Z,10.40
2023-04-10T10:22:05.434Z,11.98
2023-04-10T10:24:48.628Z,12.98
2023-04-10T10:27:32.529Z,11.95
2023-04-10T10:30:28.053Z,14.32
2023-04-10T10:33:12.457Z,10.13
2023-04-10T10:35:55.381Z,12.63
2023-04-10T10:38:41.268Z,11.50
2023-04-10T10:41:26.773Z,10.15
2023-04-10T10:44:10.074Z,11.30
2023-04-10T10:46:59.302Z,9.73
2023-04-10T10:49:55.382Z,10.38
2023-04-10T10:52:38.794Z,10.95
2023-04-10T10:55:34.787Z,10.07
2023-04-10T10:58:18.522Z,10.30
2023-04-10T11:01:19.141Z,8.93
2023-04-10T11:04:02.302Z,10.20
2023-04-10T11:06:54.904Z,10.15
2023-04-10T11:09:51.169Z,10.45
2023-04-10T11:12:55.218Z,8.90
2023-04-10T11:15:37.919Z,8.10
2023-04-10T11:18:20.883Z,7.55
2023-04-10T11:21:10.555Z,8.75
2023-04-10T11:24:04.014Z,8.52
2023-04-10T11:26:47.193Z,8.18
2023-04-10T11:29:36.941Z,10.00
2023-04-10T11:32:19.633Z,8.80
2023-04-10T11:35:04.820Z,9.38
2023-04-10T11:37:47.948Z,7.25
2023-04-10T11:40:31.363Z,7.72
2023-04-10T11:43:15.071Z,7.38
2023-04-10T11:46:15.588Z,7.68
2023-04-10T11:49:00.492Z,7.95
2023-04-10T11:51:46.177Z,8.30
2023-04-10T11:54:29.294Z,7.95
2023-04-10T11:57:12.949Z,7.63
2023-04-10T11:59:55.630Z,7.30
2023-04-10T12:02:51.089Z,8.73
2023-04-10T12:05:47.306Z,7.78
2023-04-10T12:08:33.367Z,8.68
2023-04-10T12:11:18.544Z,7.22
2023-04-10T12:14:01.143Z,8.10
2023-04-10T12:16:43.991Z,7.70
2023-04-10T12:19:26.651Z,7.45
2023-04-10T12:22:12.937Z,7.82
2023-04-10T12:24:55.557Z,6.35
2023-04-10T12:27:38.609Z,7.28
2023-04-10T12:30:21.217Z,5.85
2023-04-10T12:33:07.625Z,7.40
2023-04-10T12:35:50.559Z,7.28
2023-04-10T12:38:38.857Z,8.80
2023-04-10T12:41:25.671Z,6.30
2023-04-10T12:44:09.249Z,6.03
2023-04-10T12:46:51.909Z,6.40
2023-04-10T12:49:34.511Z,5.53
2023-04-10T12:52:23.309Z,5.60
2023-04-10T12:55:12.138Z,6.32
2023-04-10T12:57:54.985Z,4.88
2023-04-10T13:00:37.671Z,4.63
2023-04-10T13:03:20.440Z,5.15
2023-04-10T13:06:03.306Z,5.57
2023-04-10T13:08:46.680Z,5.13
2023-04-10T13:11:30.699Z,5.07
2023-04-10T13:14:13.718Z,4.90
2023-04-10T13:16:56.383Z,5.53
2023-04-10T13:19:39.154Z,4.30
2023-04-10T13:22:22.264Z,3.75
2023-04-10T13:25:05.544Z,5.25
2023-04-10T13:27:49.645Z,5.30
2023-04-10T13:30:33.082Z,4.47
2023-04-10T13:33:15.699Z,3.92
2023-04-10T13:35:58.411Z,4.43
2023-04-10T13:38:41.170Z,4.63
2023-04-10T13:41:23.762Z,5.03
2023-04-10T13:44:07.777Z,6.07
2023-04-10T13:46:52.069Z,5.68
2023-04-10T13:49:34.908Z,3.83
2023-04-10T13:52:17.561Z,5.55
2023-04-10T13:55:00.234Z,4.35
2023-04-10T13:57:43.230Z,5.40
2023-04-10T14:00:27.766Z,4.18
2023-04-10T14:03:12.255Z,4.30
2023-04-10T14:05:55.385Z,4.70
2023-04-10T14:08:37.967Z,4.32
2023-04-10T14:11:21.917Z,4.82
2023-04-10T14:14:04.568Z,5.20
2023-04-10T14:16:48.639Z,6.63
2023-04-10T14:19:31.442Z,5.47
2023-04-10T14:22:14.092Z,5.88
2023-04-10T14:25:09.249Z,5.10
2023-04-10T14:27:55.456Z,5.22
2023-04-10T14:30:38.019Z,7.68
2023-04-10T14:33:22.090Z,7.40
2023-04-10T14:36:05.133Z,6.90
2023-04-10T14:38:47.826Z,6.05
2023-04-10T14:41:30.407Z,11.82
2023-04-10T14:44:13.054Z,5.65
2023-04-10T14:46:55.688Z,7.72
2023-04-10T14:49:40.216Z,6.20
2023-04-10T14:52:22.826Z,6.80
2023-04-10T14:55:05.825Z,6.85
2023-04-10T14:57:48.453Z,10.27
2023-04-10T15:00:31.309Z,7.03
2023-04-10T15:03:14.042Z,5.43
2023-04-10T15:06:01.086Z,7.82
2023-04-10T15:08:43.687Z,7.65
2023-04-10T15:11:26.406Z,8.50
2023-04-10T15:14:08.958Z,9.57
2023-04-10T15:16:53.491Z,6.47
2023-04-10T15:19:36.691Z,12.10
2023-04-10T15:22:20.807Z,7.13
2023-04-10T15:25:03.518Z,5.93
2023-04-10T15:27:46.187Z,5.88
2023-04-10T15:30:28.932Z,6.35
2023-04-10T15:33:11.627Z,7.10
2023-04-10T15:35:54.229Z,5.07
2023-04-10T15:38:38.339Z,9.10
2023-04-10T15:41:20.967Z,5.88
2023-04-10T15:44:03.655Z,6.93
2023-04-10T15:46:47.121Z,6.18
2023-04-10T15:49:37.886Z,7.07
2023-04-10T15:52:21.386Z,6.47
2023-04-10T15:55:06.115Z,5.18
2023-04-10T15:57:48.761Z,4.90
2023-04-10T16:00:31.421Z,5.28
2023-04-10T16:03:14.178Z,5.03
2023-04-10T16:05:58.290Z,4.32
2023-04-10T16:08:41.018Z,4.95
2023-04-10T16:11:25.144Z,4.50
2023-04-10T16:14:07.778Z,4.50
2023-04-10T16:16:50.953Z,4.38
2023-04-10T16:19:33.556Z,4.57
2023-04-10T16:22:16.174Z,4.68
2023-04-10T16:24:58.842Z,6.13
2023-04-10T16:27:42.977Z,5.63
2023-04-10T16:30:25.828Z,5.57
2023-04-10T16:33:08.509Z,5.60
2023-04-10T16:35:51.150Z,5.28
2023-04-10T16:38:34.647Z,6.15
2023-04-10T16:41:18.353Z,5.95
2023-04-10T16:44:03.162Z,8.68
2023-04-10T16:46:45.887Z,8.60
2023-04-10T16:49:28.552Z,7.45
2023-04-10T16:52:11.207Z,6.90
2023-04-10T16:54:53.920Z,6.90
2023-04-10T16:57:36.589Z,7.80
2023-04-10T17:00:20.896Z,6.60
2023-04-10T17:03:03.692Z,6.85
2023-04-10T17:05:46.418Z,7.13
2023-04-10T17:08:29.040Z,7.47
2023-04-10T17:11:12.508Z,9.45
2023-04-10T17:13:55.222Z,6.80
2023-04-10T17:16:39.230Z,6.55
2023-04-10T17:19:21.853Z,6.55
2023-04-10T17:22:04.798Z,6.65
2023-04-10T17:24:47.426Z,5.72
2023-04-10T17:27:30.115Z,6.40
2023-04-10T17:30:13.099Z,7.13
2023-04-10T17:32:57.110Z,6.68
2023-04-10T17:35:39.762Z,7.25
2023-04-10T17:38:22.472Z,8.07
2023-04-10T17:41:05.326Z,6.18
2023-04-10T17:43:47.971Z,5.80
2023-04-10T17:46:30.600Z,6.38
2023-04-10T17:49:14.693Z,7.38
2023-04-10T17:51:57.330Z,6.65
2023-04-10T17:54:39.963Z,8.10
2023-04-10T17:57:22.595Z,7.00
2023-04-10T18:00:08.060Z,6.55
2023-04-10T18:02:50.747Z,7.00
2023-04-10T18:05:36.693Z,6.68
2023-04-10T18:08:19.301Z,5.85
2023-04-10T18:11:01.917Z,5.60
2023-04-10T18:13:44.518Z,5.97
2023-04-10T18:16:27.293Z,6.15
2023-04-10T18:19:09.993Z,7.75
2023-04-10T18:21:54.012Z,6.32
2023-04-10T18:24:36.593Z,5.68
2023-04-10T18:27:19.242Z,7.72
2023-04-10T18:30:01.871Z,6.68
2023-04-10T18:32:44.565Z,6.60
2023-04-10T18:35:27.239Z,6.80
2023-04-10T18:38:11.206Z,8.30
2023-04-10T18:40:55.443Z,7.68
2023-04-10T18:43:38.393Z,6.22
2023-04-10T18:46:21.311Z,8.63
2023-04-10T18:49:04.260Z,6.72
2023-04-10T18:51:46.989Z,5.47
2023-04-10T18:54:31.546Z,6.45
2023-04-10T18:57:14.344Z,6.10
2023-04-10T18:59:57.828Z,8.98
2023-04-10T19:02:40.633Z,8.68
2023-04-10T19:05:23.377Z,6.07
2023-04-10T19:08:06.024Z,7.93
2023-04-10T19:10:50.337Z,7.32
2023-04-10T19:13:33.307Z,7.65
2023-04-10T19:16:19.262Z,7.00
2023-04-10T19:19:02.481Z,6.68
2023-04-10T19:21:45.222Z,6.65
2023-04-10T19:24:28.068Z,7.13
2023-04-10T19:27:12.193Z,7.82
2023-04-10T19:29:54.811Z,7.63
2023-04-10T19:32:37.570Z,7.45
2023-04-10T19:35:21.852Z,7.95
2023-04-10T19:38:04.550Z,7.50
2023-04-10T19:40:47.217Z,9.63
2023-04-10T19:43:31.353Z,6.95
2023-04-10T19:46:17.605Z,7.65
2023-04-10T19:49:00.408Z,7.38
2023-04-10T19:51:43.023Z,7.25
2023-04-10T19:54:25.870Z,8.77
2023-04-10T19:57:08.524Z,9.48
2023-04-10T19:59:52.532Z,7.50
2023-04-10T20:02:35.299Z,7.78
2023-04-10T20:05:18.096Z,7.80
2023-04-10T20:08:00.822Z,9.75
2023-04-10T20:10:43.495Z,6.97
2023-04-10T20:13:26.436Z,8.57
2023-04-10T20:16:10.746Z,8.98
2023-04-10T20:18:55.994Z,8.43
2023-04-10T20:21:38.811Z,8.95
2023-04-10T20:24:21.444Z,6.78
2023-04-10T20:27:04.215Z,7.57
2023-04-10T20:29:46.830Z,8.55
2023-04-10T20:32:30.875Z,7.07
2023-04-10T20:35:14.517Z,7.97
2023-04-10T20:37:57.657Z,9.13
2023-04-10T20:40:40.252Z,9.30
2023-04-10T20:43:22.908Z,7.72
2023-04-10T20:46:06.602Z,7.45
2023-04-10T20:48:50.716Z,6.90
2023-04-10T20:51:33.669Z,7.97
2023-04-10T20:54:18.851Z,6.63
2023-04-10T20:57:01.965Z,6.60
2023-04-10T20:59:46.176Z,7.40
2023-04-10T21:02:29.087Z,6.30
2023-04-10T21:05:13.370Z,6.55
2023-04-10T21:07:56.160Z,7.05
2023-04-10T21:10:43.956Z,6.28
2023-04-10T21:13:26.919Z,6.72
2023-04-10T21:16:09.943Z,7.35
2023-04-10T21:18:53.863Z,5.78
2023-04-10T21:21:38.437Z,6.68
2023-04-10T21:24:22.319Z,6.07
2023-04-10T21:27:05.234Z,6.75
2023-04-10T21:29:47.972Z,6.68
2023-04-10T21:32:30.698Z,7.20
2023-04-10T21:35:13.413Z,7.53
2023-04-10T21:38:01.813Z,6.72
2023-04-10T21:40:50.793Z,5.85
2023-04-10T21:43:35.182Z,6.03
2023-04-10T21:46:17.825Z,6.32
2023-04-10T21:49:00.517Z,6.03
2023-04-10T21:51:43.160Z,5.45
2023-04-10T21:54:27.236Z,5.28
2023-04-10T21:57:09.943Z,4.50
2023-04-10T21:59:52.600Z,5.60
2023-04-10T22:02:35.398Z,6.07
2023-04-10T22:05:18.277Z,4.68
2023-04-10T22:08:00.884Z,4.55
2023-04-10T22:10:47.207Z,2.97
2023-04-10T22:13:31.102Z,3.92
2023-04-10T22:16:14.077Z,3.78
2023-04-10T22:18:56.778Z,2.80
2023-04-10T22:21:39.446Z,3.40
2023-04-10T22:24:22.012Z,4.57
2023-04-10T22:27:06.013Z,3.58
2023-04-10T22:29:59.971Z,4.05
2023-04-10T22:32:45.788Z,4.35
2023-04-10T22:35:28.552Z,4.43
2023-04-10T22:38:11.179Z,2.72
2023-04-10T22:40:54.760Z,3.35
2023-04-10T22:43:38.796Z,3.70
2023-04-10T22:46:21.445Z,3.58
2023-04-10T22:49:04.198Z,4.13
2023-04-10T22:51:46.815Z,2.42
2023-04-10T22:54:29.436Z,3.63
2023-04-10T22:57:11.995Z,3.10
2023-04-10T22:59:56.007Z,3.80
2023-04-10T23:02:38.785Z,4.45
2023-04-10T23:05:21.457Z,3.70
2023-04-10T23:08:04.038Z,3.15
2023-04-10T23:10:46.730Z,3.08
2023-04-10T23:13:29.371Z,4.20
2023-04-10T23:16:13.434Z,2.72
2023-04-10T23:18:56.261Z,4.75
2023-04-10T23:21:39.034Z,3.85
2023-04-10T23:24:21.632Z,3.75
2023-04-10T23:27:06.748Z,3.58
2023-04-10T23:29:49.451Z,4.43
2023-04-10T23:32:33.700Z,3.63
2023-04-10T23:35:16.307Z,4.28
2023-04-10T23:37:58.914Z,3.38
2023-04-10T23:40:41.468Z,2.40
2023-04-10T23:43:24.377Z,3.03
2023-04-10T23:46:07.333Z,3.53
2023-04-10T23:48:53.594Z,4.95
2023-04-10T23:51:36.363Z,3.05
2023-04-10T23:54:18.988Z,2.67
2023-04-10T23:57:01.597Z,3.03
2023-04-10T23:59:44.201Z,3.13
